Time;durP1;ratioP1;P1;durP2;ratioP2;P2;SDS_P1;SDS_P2;PMS_P1;PMS_P2;Temp;Humidity;BMP_temperature;BMP_pressure;BME280_temperature;BME280_humidity;BME280_pressure;Samples;Min_cycle;Max_cycle;Signal;HPM_P1;HPM_P2
2021/08/20 00:02:18;;;;;;;0.82;0.60;;;21.10;96.30;;;;;;4937583;29;20035;-80
2021/08/20 00:04:43;;;;;;;1.67;0.85;;;21.10;96.40;;;;;;4969433;28;20389;-80
2021/08/20 00:07:09;;;;;;;0.90;0.70;;;21.10;96.40;;;;;;4956972;28;20077;-81
2021/08/20 00:09:35;;;;;;;1.55;0.80;;;21.10;96.40;;;;;;4974111;28;20023;-80
2021/08/20 00:12:01;;;;;;;1.70;0.85;;;21.10;96.40;;;;;;4973943;28;20027;-80
2021/08/20 00:14:27;;;;;;;1.70;0.70;;;21.10;96.40;;;;;;4973298;28;20026;-80
2021/08/20 00:16:52;;;;;;;0.88;0.60;;;21.10;96.40;;;;;;4973024;28;20046;-79
2021/08/20 00:19:18;;;;;;;1.10;0.70;;;21.10;96.40;;;;;;4973093;28;20395;-80
2021/08/20 00:21:44;;;;;;;0.90;0.60;;;21.10;96.40;;;;;;4973016;28;20066;-81
2021/08/20 00:24:14;;;;;;;1.77;0.85;;;21.10;96.50;;;;;;4973531;28;20019;-79
2021/08/20 00:26:40;;;;;;;1.65;0.68;;;21.10;96.50;;;;;;4973869;28;20043;-79
2021/08/20 00:29:05;;;;;;;1.52;0.40;;;21.00;96.50;;;;;;4973249;28;20090;-82
2021/08/20 00:31:31;;;;;;;1.40;0.90;;;21.10;96.50;;;;;;4972509;28;20110;-79
2021/08/20 00:33:58;;;;;;;1.85;0.90;;;21.00;96.40;;;;;;4973347;28;20023;-81
2021/08/20 00:36:23;;;;;;;1.38;0.73;;;21.10;96.50;;;;;;4973158;28;20031;-79
2021/08/20 00:38:49;;;;;;;1.40;0.60;;;21.10;96.50;;;;;;4973139;28;20371;-79
2021/08/20 00:41:15;;;;;;;1.15;0.60;;;21.00;96.40;;;;;;4973064;28;20093;-82
2021/08/20 00:43:42;;;;;;;0.90;0.65;;;21.00;96.40;;;;;;4972833;28;20537;-78
2021/08/20 00:46:08;;;;;;;2.17;0.82;;;21.00;96.50;;;;;;4972788;28;20082;-79
2021/08/20 00:48:33;;;;;;;0.68;0.60;;;21.00;96.50;;;;;;4972415;28;20514;-79
2021/08/20 00:51:05;;;;;;;1.15;0.52;;;21.00;96.40;;;;;;4972562;28;20131;-80
2021/08/20 00:53:33;;;;;;;1.67;0.65;;;21.00;96.40;;;;;;4972977;28;20497;-82
2021/08/20 00:56:00;;;;;;;1.48;0.70;;;21.00;96.50;;;;;;4972795;28;20038;-79
2021/08/20 00:58:29;;;;;;;2.03;0.80;;;21.00;96.50;;;;;;4972514;28;20074;-80
2021/08/20 01:00:55;;;;;;;1.17;0.60;;;21.00;96.50;;;;;;4972640;28;20049;-80
2021/08/20 01:03:21;;;;;;;1.65;0.70;;;21.00;96.50;;;;;;4962562;28;20024;-79
2021/08/20 01:05:51;;;;;;;1.35;0.70;;;21.00;96.50;;;;;;4953327;29;20026;-79
2021/08/20 01:08:17;;;;;;;1.45;1.00;;;21.00;96.60;;;;;;4953458;29;20035;-80
2021/08/20 01:10:43;;;;;;;1.42;0.75;;;21.00;96.60;;;;;;4953610;29;20015;-79
2021/08/20 01:13:08;;;;;;;1.30;0.80;;;21.00;96.50;;;;;;4969848;28;20057;-79
2021/08/20 01:15:34;;;;;;;1.58;0.73;;;21.00;96.60;;;;;;4972252;28;20027;-81
2021/08/20 01:18:00;;;;;;;0.90;0.60;;;21.00;96.60;;;;;;4971807;28;20042;-80
2021/08/20 01:20:25;;;;;;;0.80;0.55;;;21.00;96.60;;;;;;4971655;28;20377;-79
2021/08/20 01:22:51;;;;;;;1.48;0.70;;;21.00;96.60;;;;;;4953481;29;20144;-79
2021/08/20 01:25:17;;;;;;;1.35;0.70;;;21.00;96.60;;;;;;4967893;28;20077;-80
2021/08/20 01:27:42;;;;;;;1.23;0.60;;;21.00;96.60;;;;;;4971239;28;20483;-80
2021/08/20 01:30:09;;;;;;;1.52;1.02;;;21.00;96.70;;;;;;4971767;28;20491;-80
2021/08/20 01:32:35;;;;;;;1.65;0.75;;;21.00;96.70;;;;;;4968265;28;20033;-79
2021/08/20 01:35:00;;;;;;;1.42;0.70;;;21.00;97.00;;;;;;4936120;29;20027;-79
2021/08/20 01:37:26;;;;;;;1.08;0.70;;;20.90;96.70;;;;;;4953055;29;20038;-80
2021/08/20 01:39:52;;;;;;;1.08;0.60;;;21.00;96.70;;;;;;4953266;29;20384;-79
2021/08/20 01:42:19;;;;;;;1.58;0.60;;;21.00;96.70;;;;;;4956825;28;20085;-79
2021/08/20 01:44:44;;;;;;;0.95;0.52;;;20.90;96.60;;;;;;4971729;28;20083;-79
2021/08/20 01:47:11;;;;;;;1.05;0.68;;;20.90;96.70;;;;;;4971836;28;20451;-79
2021/08/20 01:49:42;;;;;;;1.15;0.70;;;20.90;96.60;;;;;;4971650;28;20026;-79
2021/08/20 01:52:09;;;;;;;1.60;0.80;;;20.90;96.70;;;;;;4972180;28;20034;-80
2021/08/20 01:54:35;;;;;;;1.15;0.60;;;20.90;96.70;;;;;;4972457;28;20023;-80
2021/08/20 01:57:00;;;;;;;2.72;0.70;;;20.90;96.70;;;;;;4974418;28;20034;-79
2021/08/20 01:59:27;;;;;;;1.98;0.60;;;20.90;96.70;;;;;;4975920;28;20030;-80
2021/08/20 02:01:52;;;;;;;1.55;0.60;;;20.90;96.70;;;;;;4975525;28;20030;-80
2021/08/20 02:04:19;;;;;;;0.80;0.57;;;20.90;96.80;;;;;;4961400;28;20031;-81
2021/08/20 02:06:45;;;;;;;1.27;0.60;;;20.90;96.70;;;;;;4956903;29;20039;-79
2021/08/20 02:09:11;;;;;;;1.17;0.50;;;20.90;96.80;;;;;;4971959;28;20030;-79
2021/08/20 02:11:37;;;;;;;0.70;0.43;;;20.90;96.80;;;;;;4975571;28;20086;-79
2021/08/20 02:14:03;;;;;;;1.38;0.60;;;20.90;96.80;;;;;;4975675;28;20061;-79
2021/08/20 02:16:28;;;;;;;1.15;0.77;;;20.90;96.70;;;;;;4975748;28;20055;-79
2021/08/20 02:18:54;;;;;;;1.23;0.55;;;20.90;96.90;;;;;;4975105;28;20394;-79
2021/08/20 02:21:20;;;;;;;1.05;0.60;;;20.90;96.90;;;;;;4974900;28;20114;-79
2021/08/20 02:23:45;;;;;;;1.92;0.73;;;20.90;96.90;;;;;;4975213;28;20066;-80
2021/08/20 02:26:11;;;;;;;1.67;0.60;;;20.90;96.90;;;;;;4975535;28;20490;-80
2021/08/20 02:28:36;;;;;;;0.98;0.40;;;20.90;96.90;;;;;;4975818;28;20026;-81
2021/08/20 02:31:02;;;;;;;2.90;0.90;;;20.90;96.90;;;;;;4975385;28;20054;-80
2021/08/20 02:33:28;;;;;;;1.15;0.60;;;20.90;96.90;;;;;;4968857;28;20031;-80
2021/08/20 02:35:53;;;;;;;0.60;0.50;;;20.90;96.90;;;;;;4956458;29;20023;-80
2021/08/20 02:38:19;;;;;;;1.10;0.85;;;20.90;97.00;;;;;;4963644;28;20034;-80
2021/08/20 02:40:44;;;;;;;0.95;0.47;;;20.90;96.90;;;;;;4975601;28;20483;-80
2021/08/20 02:43:10;;;;;;;0.85;0.50;;;20.90;97.00;;;;;;4957676;28;20042;-79
2021/08/20 02:45:36;;;;;;;1.73;1.15;;;20.80;97.00;;;;;;4959867;28;20028;-81
2021/08/20 02:48:02;;;;;;;0.90;0.50;;;20.90;96.90;;;;;;4957296;28;20031;-79
2021/08/20 02:50:27;;;;;;;1.15;0.70;;;20.90;97.00;;;;;;4974485;28;20027;-81
2021/08/20 02:52:53;;;;;;;1.67;0.68;;;20.90;97.00;;;;;;4975244;28;20031;-80
2021/08/20 02:55:18;;;;;;;1.13;0.60;;;20.80;96.90;;;;;;4975109;28;20118;-79
2021/08/20 02:57:44;;;;;;;1.10;0.60;;;20.80;97.00;;;;;;4975357;28;20031;-80
2021/08/20 03:00:10;;;;;;;1.98;0.82;;;20.80;97.00;;;;;;4973331;28;20090;-78
2021/08/20 03:02:36;;;;;;;0.63;0.40;;;20.80;96.90;;;;;;4974217;28;20054;-79
2021/08/20 03:05:02;;;;;;;1.13;0.80;;;20.90;97.00;;;;;;4974312;28;20050;-81
2021/08/20 03:07:28;;;;;;;1.58;0.80;;;20.90;97.00;;;;;;4973618;28;20085;-79
2021/08/20 03:09:53;;;;;;;1.48;0.60;;;20.80;97.00;;;;;;4975109;28;20015;-78
2021/08/20 03:12:21;;;;;;;1.00;0.50;;;20.80;97.00;;;;;;4974169;28;20045;-80
2021/08/20 03:14:47;;;;;;;1.35;0.70;;;20.80;97.10;;;;;;4975027;28;20023;-80
2021/08/20 03:17:13;;;;;;;0.82;0.60;;;20.80;97.10;;;;;;4957262;28;20042;-80
2021/08/20 03:19:38;;;;;;;1.52;0.40;;;20.80;97.00;;;;;;4974377;28;20081;-81
2021/08/20 03:22:04;;;;;;;1.13;0.60;;;20.80;97.10;;;;;;4974654;28;20042;-79
2021/08/20 03:24:30;;;;;;;0.80;0.50;;;20.80;97.10;;;;;;4974277;28;20402;-80
2021/08/20 03:26:55;;;;;;;0.88;0.50;;;20.80;97.10;;;;;;4974715;28;20046;-81
2021/08/20 03:29:21;;;;;;;0.80;0.60;;;20.80;97.10;;;;;;4974170;28;20049;-81
2021/08/20 03:31:46;;;;;;;1.00;0.60;;;20.80;97.10;;;;;;4974157;28;20038;-80
2021/08/20 03:34:12;;;;;;;1.35;0.68;;;20.80;97.20;;;;;;4973399;28;20511;-80
2021/08/20 03:36:38;;;;;;;0.70;0.60;;;20.80;97.20;;;;;;4974953;28;20113;-81
2021/08/20 03:39:04;;;;;;;1.33;0.88;;;20.80;97.10;;;;;;4974653;28;20023;-79
2021/08/20 03:41:29;;;;;;;1.13;0.80;;;20.80;97.10;;;;;;4956797;28;20587;-79
2021/08/20 03:43:55;;;;;;;1.02;0.55;;;20.80;97.10;;;;;;4974428;28;20031;-79
2021/08/20 03:46:20;;;;;;;1.45;0.70;;;20.80;97.10;;;;;;4973135;28;20073;-79
2021/08/20 03:48:46;;;;;;;0.75;0.65;;;20.80;97.10;;;;;;4974389;28;20023;-82
2021/08/20 03:51:12;;;;;;;1.08;0.70;;;20.80;97.10;;;;;;4973377;28;20365;-79
2021/08/20 03:53:38;;;;;;;1.23;0.60;;;20.80;97.10;;;;;;4974663;28;20019;-79
2021/08/20 03:56:04;;;;;;;1.23;0.52;;;20.80;97.20;;;;;;4974255;28;20082;-80
2021/08/20 03:58:30;;;;;;;0.77;0.55;;;20.80;97.10;;;;;;4973682;28;20644;-78
2021/08/20 04:00:55;;;;;;;2.72;0.60;;;20.80;97.10;;;;;;4973756;28;20035;-80
2021/08/20 04:03:24;;;;;;;1.13;0.50;;;20.80;97.20;;;;;;4973945;28;20454;-79
2021/08/20 04:05:50;;;;;;;0.85;0.50;;;20.70;97.20;;;;;;4972041;28;20027;-80
2021/08/20 04:08:17;;;;;;;1.10;0.68;;;20.70;97.20;;;;;;4973772;28;20031;-80
2021/08/20 04:10:43;;;;;;;1.15;0.60;;;20.70;97.20;;;;;;4974014;28;20133;-80
2021/08/20 04:13:09;;;;;;;1.25;0.60;;;20.70;97.10;;;;;;4973878;28;20499;-79
2021/08/20 04:15:36;;;;;;;0.60;0.50;;;20.70;97.10;;;;;;4973825;28;20019;-79
2021/08/20 04:18:01;;;;;;;1.45;0.70;;;20.80;97.20;;;;;;4973593;28;20502;-78
2021/08/20 04:20:27;;;;;;;1.02;0.63;;;20.70;97.20;;;;;;4972259;28;20019;-79
2021/08/20 04:22:55;;;;;;;0.98;0.52;;;20.70;97.20;;;;;;4973748;28;20037;-79
2021/08/20 04:25:21;;;;;;;0.95;0.50;;;20.70;97.30;;;;;;4973255;28;20394;-81
2021/08/20 04:27:47;;;;;;;0.90;0.60;;;20.70;97.30;;;;;;4973586;28;20037;-81
2021/08/20 04:30:13;;;;;;;0.73;0.68;;;20.70;97.30;;;;;;4973092;28;20026;-80
2021/08/20 04:32:39;;;;;;;0.98;0.60;;;20.70;97.30;;;;;;4973821;28;20603;-79
2021/08/20 04:35:05;;;;;;;1.33;0.68;;;20.70;97.40;;;;;;4973072;28;20027;-80
2021/08/20 04:37:31;;;;;;;0.98;0.68;;;20.70;97.40;;;;;;4972822;28;20038;-80
2021/08/20 04:39:56;;;;;;;1.17;0.68;;;20.70;97.40;;;;;;4966201;28;20027;-80
2021/08/20 04:42:22;;;;;;;1.05;0.60;;;20.70;97.40;;;;;;4936534;29;20403;-79
2021/08/20 04:44:47;;;;;;;0.73;0.52;;;20.70;97.40;;;;;;4959949;28;20430;-81
2021/08/20 04:47:13;;;;;;;1.30;0.70;;;20.70;97.40;;;;;;4972604;28;20442;-79
2021/08/20 04:49:39;;;;;;;1.08;0.80;;;20.70;97.40;;;;;;4973502;28;20058;-79
2021/08/20 04:52:05;;;;;;;0.77;0.45;;;20.70;97.40;;;;;;4972447;28;20106;-80
2021/08/20 04:54:30;;;;;;;0.88;0.45;;;20.70;97.40;;;;;;4972841;28;20415;-80
2021/08/20 04:56:56;;;;;;;1.00;0.68;;;20.70;97.50;;;;;;4972875;28;20030;-79
2021/08/20 04:59:21;;;;;;;1.10;0.50;;;20.70;97.40;;;;;;4972864;28;20027;-83
2021/08/20 05:01:47;;;;;;;1.13;0.70;;;20.70;97.50;;;;;;4972538;28;20035;-80
2021/08/20 05:04:14;;;;;;;0.82;0.57;;;20.70;97.50;;;;;;4972545;28;20038;-81
2021/08/20 05:06:39;;;;;;;0.95;0.60;;;20.70;97.50;;;;;;4972026;28;20039;-79
2021/08/20 05:09:07;;;;;;;1.33;0.60;;;20.70;97.50;;;;;;4972604;28;20030;-80
2021/08/20 05:11:37;;;;;;;0.70;0.60;;;20.70;97.50;;;;;;4953230;29;20030;-81
2021/08/20 05:14:03;;;;;;;1.20;0.75;;;20.70;97.50;;;;;;4965950;28;20427;-80
2021/08/20 05:16:29;;;;;;;1.95;0.70;;;20.70;97.50;;;;;;4972667;28;20034;-80
2021/08/20 05:18:57;;;;;;;1.67;0.70;;;20.70;97.50;;;;;;4972371;28;20027;-82
2021/08/20 05:21:23;;;;;;;2.05;0.60;;;20.70;97.50;;;;;;4971836;28;20110;-80
2021/08/20 05:23:49;;;;;;;2.53;0.60;;;20.70;97.50;;;;;;4972739;28;20458;-81
2021/08/20 05:26:15;;;;;;;1.10;0.63;;;20.70;97.80;;;;;;4972131;28;20046;-81
2021/08/20 05:28:41;;;;;;;1.30;0.60;;;20.70;97.50;;;;;;4971981;28;20019;-81
2021/08/20 05:31:07;;;;;;;1.45;0.65;;;20.70;97.50;;;;;;4971356;28;20039;-81
2021/08/20 05:33:33;;;;;;;1.10;0.60;;;20.70;97.50;;;;;;4972028;28;20027;-81
2021/08/20 05:35:58;;;;;;;0.80;0.65;;;20.70;97.50;;;;;;4964183;28;20495;-80
2021/08/20 05:38:24;;;;;;;1.15;0.75;;;20.60;97.50;;;;;;4971259;28;20061;-81
2021/08/20 05:40:50;;;;;;;0.95;0.50;;;20.60;97.50;;;;;;4963193;28;20029;-81
2021/08/20 05:43:16;;;;;;;1.35;0.60;;;20.70;97.50;;;;;;4953220;29;20365;-80
2021/08/20 05:45:42;;;;;;;0.93;0.68;;;20.60;97.50;;;;;;4968644;28;20034;-82
2021/08/20 05:48:08;;;;;;;0.70;0.60;;;20.70;97.60;;;;;;4972865;28;20089;-83
2021/08/20 05:50:35;;;;;;;1.00;0.65;;;20.60;97.50;;;;;;4972083;28;20546;-81
2021/08/20 05:53:01;;;;;;;0.85;0.50;;;20.60;97.50;;;;;;4972096;28;20030;-82
2021/08/20 05:55:30;;;;;;;1.10;0.52;;;20.60;97.60;;;;;;4971846;28;20026;-82
2021/08/20 05:57:56;;;;;;;0.85;0.52;;;20.70;97.60;;;;;;4972494;28;20022;-79
2021/08/20 06:00:22;;;;;;;1.00;0.70;;;20.60;97.90;;;;;;4971808;28;20399;-82
2021/08/20 06:02:47;;;;;;;1.17;0.77;;;20.70;97.70;;;;;;4972428;28;20022;-80
2021/08/20 06:05:13;;;;;;;1.00;0.80;;;20.70;97.70;;;;;;4971569;28;20141;-79
2021/08/20 06:07:38;;;;;;;1.52;0.98;;;20.70;97.80;;;;;;4971661;28;20550;-79
2021/08/20 06:10:07;;;;;;;3.40;1.40;;;20.70;97.90;;;;;;4970654;28;20558;-79
2021/08/20 06:12:33;;;;;;;2.35;1.08;;;20.80;98.00;;;;;;4953516;29;20036;-79
2021/08/20 06:14:58;;;;;;;2.28;1.30;;;20.80;98.30;;;;;;4955934;28;20015;-78
2021/08/20 06:17:24;;;;;;;3.92;1.25;;;20.80;98.00;;;;;;4971187;28;20106;-78
2021/08/20 06:19:50;;;;;;;2.17;0.90;;;20.80;98.20;;;;;;4971546;28;20066;-78
2021/08/20 06:22:15;;;;;;;5.97;2.40;;;20.80;98.20;;;;;;4962580;28;20542;-78
2021/08/20 06:24:41;;;;;;;25.33;10.45;;;20.80;98.40;;;;;;4971061;28;20027;-78
2021/08/20 06:27:07;;;;;;;21.65;9.55;;;20.80;99.00;;;;;;4961702;28;20122;-78
2021/08/20 06:29:33;;;;;;;21.98;8.65;;;20.90;99.00;;;;;;4953835;28;20553;-78
2021/08/20 06:31:59;;;;;;;18.65;7.85;;;20.90;99.20;;;;;;4970794;28;20398;-79
2021/08/20 06:34:25;;;;;;;20.38;7.57;;;20.90;99.20;;;;;;4971649;28;20023;-80
2021/08/20 06:36:50;;;;;;;17.83;6.68;;;20.90;99.60;;;;;;4971273;28;20398;-75
2021/08/20 06:39:16;;;;;;;17.40;6.55;;;20.90;99.70;;;;;;4970967;28;20074;-84
2021/08/20 06:41:42;;;;;;;14.07;6.60;;;20.90;99.50;;;;;;4972105;28;20126;-77
2021/08/20 06:44:08;;;;;;;14.38;6.32;;;20.90;99.30;;;;;;4958611;28;20054;-78
2021/08/20 06:46:35;;;;;;;11.15;5.38;;;21.00;99.30;;;;;;4970969;28;20031;-77
2021/08/20 06:49:01;;;;;;;17.35;5.97;;;20.90;99.40;;;;;;4968184;28;20053;-76
2021/08/20 06:51:27;;;;;;;11.93;6.18;;;20.90;99.40;;;;;;4974887;28;20034;-78
2021/08/20 06:53:52;;;;;;;11.13;4.85;;;21.00;99.40;;;;;;4974774;28;20023;-80
2021/08/20 06:56:18;;;;;;;13.50;4.85;;;21.00;99.50;;;;;;4975233;28;20065;-76
2021/08/20 06:58:44;;;;;;;7.20;4.30;;;21.00;99.40;;;;;;4975181;28;20019;-79
2021/08/20 07:01:09;;;;;;;11.82;4.93;;;21.00;99.30;;;;;;4974828;28;20096;-76
2021/08/20 07:03:35;;;;;;;15.27;4.30;;;21.00;99.30;;;;;;4975800;28;20025;-85
2021/08/20 07:06:01;;;;;;;9.32;4.18;;;21.10;98.80;;;;;;4975261;28;22371;-82
2021/08/20 07:08:26;;;;;;;7.25;3.65;;;21.10;99.10;;;;;;4974745;28;20027;-82
2021/08/20 07:10:54;;;;;;;9.95;3.97;;;21.10;99.00;;;;;;4974073;28;20054;-83
2021/08/20 07:13:20;;;;;;;11.57;2.92;;;21.10;98.70;;;;;;4974907;28;20487;-80
2021/08/20 07:15:46;;;;;;;7.88;3.10;;;21.10;98.70;;;;;;4975191;28;20026;-81
2021/08/20 07:18:11;;;;;;;7.75;3.20;;;21.10;98.50;;;;;;4974809;28;20049;-81
2021/08/20 07:20:37;;;;;;;7.57;3.00;;;21.10;98.50;;;;;;4975355;28;20510;-82
2021/08/20 07:23:02;;;;;;;5.45;2.80;;;21.10;98.50;;;;;;4975051;28;20472;-83
2021/08/20 07:25:28;;;;;;;9.10;3.08;;;21.10;98.40;;;;;;4974693;28;20023;-84
2021/08/20 07:27:54;;;;;;;7.95;2.95;;;21.20;98.50;;;;;;4974867;28;20039;-84
2021/08/20 07:30:19;;;;;;;8.85;2.75;;;21.20;98.40;;;;;;4974612;28;20037;-80
2021/08/20 07:32:46;;;;;;;7.03;2.78;;;21.20;98.30;;;;;;4974723;28;20094;-82
2021/08/20 07:35:12;;;;;;;9.43;2.47;;;21.20;98.30;;;;;;4974502;28;20065;-81
2021/08/20 07:37:37;;;;;;;6.90;2.90;;;21.20;98.20;;;;;;4974982;28;20081;-83
2021/08/20 07:40:05;;;;;;;5.03;2.88;;;21.20;98.20;;;;;;4974661;28;20023;-81
2021/08/20 07:42:31;;;;;;;9.95;2.65;;;21.20;98.20;;;;;;4974234;28;20113;-83
2021/08/20 07:44:56;;;;;;;6.20;2.28;;;21.20;98.10;;;;;;4974647;28;20069;-82
2021/08/20 07:47:22;;;;;;;7.38;2.00;;;21.20;98.10;;;;;;4974357;28;20062;-81
2021/08/20 07:49:47;;;;;;;5.05;2.03;;;21.30;98.10;;;;;;4974486;28;20022;-82
2021/08/20 07:52:13;;;;;;;5.32;2.60;;;21.20;98.00;;;;;;4974308;28;20062;-86
2021/08/20 07:54:39;;;;;;;4.80;2.38;;;21.30;98.00;;;;;;4973943;28;20031;-82
2021/08/20 07:57:05;;;;;;;6.28;2.08;;;21.20;97.90;;;;;;4974510;28;20031;-81
2021/08/20 07:59:30;;;;;;;3.78;1.48;;;21.30;97.90;;;;;;4974160;28;20511;-82
2021/08/20 08:01:56;;;;;;;5.07;1.90;;;21.30;97.80;;;;;;4974283;28;20122;-83
2021/08/20 08:04:21;;;;;;;4.78;1.92;;;21.30;97.90;;;;;;4973973;28;20442;-81
2021/08/20 08:06:47;;;;;;;4.95;1.92;;;21.30;97.80;;;;;;4972983;28;20121;-81
2021/08/20 08:09:13;;;;;;;3.83;1.92;;;21.30;97.80;;;;;;4973803;28;20023;-81
2021/08/20 08:11:38;;;;;;;3.78;2.00;;;21.30;97.80;;;;;;4974429;28;20154;-81
2021/08/20 08:14:06;;;;;;;5.40;1.63;;;21.30;97.80;;;;;;4974257;28;20522;-84
2021/08/20 08:16:33;;;;;;;4.82;1.65;;;21.30;97.80;;;;;;4973829;28;20019;-84
2021/08/20 08:19:00;;;;;;;3.42;1.98;;;21.30;97.70;;;;;;4973952;28;20042;-83
2021/08/20 08:21:25;;;;;;;3.00;1.50;;;21.30;97.70;;;;;;4973631;28;20019;-84
2021/08/20 08:23:51;;;;;;;4.50;2.03;;;21.30;97.70;;;;;;4973942;28;20398;-83
2021/08/20 08:26:17;;;;;;;2.95;1.27;;;21.40;97.60;;;;;;4972320;28;20050;-83
2021/08/20 08:28:42;;;;;;;3.78;1.60;;;21.40;97.60;;;;;;4973817;28;20479;-84
2021/08/20 08:31:08;;;;;;;4.55;1.60;;;21.40;97.50;;;;;;4974089;28;20026;-84
2021/08/20 08:33:34;;;;;;;3.05;1.40;;;21.40;97.40;;;;;;4973472;28;20031;-84
2021/08/20 08:36:00;;;;;;;3.88;1.45;;;21.40;97.30;;;;;;4973591;28;20439;-83
2021/08/20 08:38:26;;;;;;;4.80;1.40;;;21.40;97.30;;;;;;4973479;28;20479;-83
2021/08/20 08:40:51;;;;;;;3.47;1.40;;;21.50;97.20;;;;;;4973420;28;20102;-83
2021/08/20 08:43:17;;;;;;;2.92;1.50;;;21.40;97.30;;;;;;4956077;28;20041;-83
2021/08/20 08:45:43;;;;;;;5.45;1.98;;;21.40;97.20;;;;;;4973448;28;20098;-83
2021/08/20 08:48:11;;;;;;;3.55;1.40;;;21.50;97.20;;;;;;4973788;28;20035;-83
2021/08/20 08:50:39;;;;;;;3.65;1.42;;;21.40;97.20;;;;;;4973726;28;20098;-83
2021/08/20 08:53:05;;;;;;;3.00;1.20;;;21.50;97.30;;;;;;4972457;28;20395;-81
2021/08/20 08:55:31;;;;;;;2.28;1.45;;;21.50;97.20;;;;;;4973055;28;20027;-82
2021/08/20 08:57:57;;;;;;;5.57;1.48;;;21.50;97.10;;;;;;4973319;28;20015;-84
2021/08/20 09:00:33;;;;;;;3.78;1.40;;;21.50;97.40;;;;;;4972888;28;20031;-82
2021/08/20 09:02:59;;;;;;;3.33;1.60;;;21.50;97.00;;;;;;4971829;28;20029;-82
2021/08/20 09:05:26;;;;;;;2.38;1.25;;;21.50;97.00;;;;;;4972806;28;20031;-81
2021/08/20 09:07:54;;;;;;;4.00;1.30;;;21.60;96.90;;;;;;4971770;28;20057;-83
2021/08/20 09:10:23;;;;;;;2.97;1.13;;;21.60;96.90;;;;;;4972691;28;20037;-82
2021/08/20 09:12:52;;;;;;;2.97;1.20;;;21.60;96.80;;;;;;4973059;28;20522;-83
2021/08/20 09:15:19;;;;;;;1.52;0.98;;;21.60;96.80;;;;;;4972606;28;20122;-83
2021/08/20 09:17:59;;;;;;;4.13;1.30;;;21.60;96.70;;;;;;4972968;28;20189;-83
2021/08/20 09:20:27;;;;;;;3.00;1.50;;;21.60;96.70;;;;;;4972653;28;20023;-81
2021/08/20 09:22:55;;;;;;;5.13;1.88;;;21.60;96.60;;;;;;4972743;28;20407;-82
2021/08/20 09:25:35;;;;;;;2.72;1.35;;;21.60;96.60;;;;;;4972590;28;20430;-82
2021/08/20 09:28:15;;;;;;;3.55;1.20;;;21.60;96.60;;;;;;4972659;28;20118;-82
2021/08/20 09:30:44;;;;;;;3.67;1.30;;;21.70;96.60;;;;;;4971387;28;20026;-83
2021/08/20 09:33:12;;;;;;;3.90;1.63;;;21.70;96.50;;;;;;4972723;28;20041;-81
2021/08/20 09:35:39;;;;;;;3.45;1.10;;;21.70;96.50;;;;;;4972928;28;20078;-81
2021/08/20 09:38:10;;;;;;;2.60;1.30;;;21.70;96.40;;;;;;4972949;28;20015;-81
2021/08/20 09:40:37;;;;;;;2.83;1.48;;;21.80;96.30;;;;;;4972914;28;20041;-82
2021/08/20 09:43:19;;;;;;;2.75;1.30;;;21.80;96.30;;;;;;4972384;28;20026;-81
2021/08/20 09:46:10;;;;;;;2.40;1.20;;;21.80;96.20;;;;;;4971250;28;20031;-83
2021/08/20 09:48:45;;;;;;;3.78;1.05;;;21.80;96.20;;;;;;4969915;28;20098;-83
2021/08/20 09:51:30;;;;;;;3.40;1.10;;;21.80;96.20;;;;;;4970849;28;20023;-83
2021/08/20 09:54:23;;;;;;;3.93;1.40;;;21.80;96.00;;;;;;4972504;28;20030;-82
2021/08/20 09:56:49;;;;;;;3.70;1.25;;;21.80;96.00;;;;;;4964577;28;20039;-82
2021/08/20 09:59:16;;;;;;;3.88;1.20;;;21.80;96.00;;;;;;4972195;28;20023;-84
2021/08/20 10:01:44;;;;;;;2.92;1.20;;;21.80;96.00;;;;;;4972443;28;20372;-82
2021/08/20 10:04:11;;;;;;;3.33;1.40;;;21.90;95.80;;;;;;4972263;28;20023;-80
2021/08/20 10:06:44;;;;;;;2.30;1.25;;;21.90;95.70;;;;;;4972572;28;20057;-83
2021/08/20 10:09:15;;;;;;;3.38;1.65;;;21.90;95.70;;;;;;4972077;28;20038;-81
2021/08/20 10:11:54;;;;;;;3.28;1.58;;;21.90;95.80;;;;;;4972326;28;20018;-83
2021/08/20 10:14:23;;;;;;;2.13;1.17;;;22.00;95.70;;;;;;4972081;28;20023;-84
2021/08/20 10:16:49;;;;;;;2.50;1.00;;;22.00;95.50;;;;;;4972876;28;20034;-82
2021/08/20 10:19:15;;;;;;;2.17;1.00;;;22.00;95.60;;;;;;4975891;28;20545;-81
2021/08/20 10:21:42;;;;;;;2.25;1.20;;;21.90;95.60;;;;;;4976055;28;20053;-84
2021/08/20 10:24:10;;;;;;;1.90;1.08;;;21.90;95.70;;;;;;4976254;28;20061;-81
2021/08/20 10:26:54;;;;;;;1.95;1.00;;;21.90;95.70;;;;;;4976184;28;20031;-82
2021/08/20 10:29:22;;;;;;;2.47;1.20;;;21.90;95.60;;;;;;4975628;28;20034;-84
2021/08/20 10:31:49;;;;;;;3.35;1.67;;;22.00;95.60;;;;;;4975935;28;20038;-83
2021/08/20 10:34:29;;;;;;;2.45;1.05;;;22.00;95.50;;;;;;4975656;28;20026;-80
2021/08/20 10:37:15;;;;;;;3.13;1.00;;;22.10;95.40;;;;;;4975974;28;20098;-84
2021/08/20 10:39:43;;;;;;;2.17;0.90;;;22.00;95.30;;;;;;4974401;28;20387;-83
2021/08/20 10:42:09;;;;;;;2.03;1.10;;;22.00;95.30;;;;;;4975965;28;20037;-84
2021/08/20 10:44:37;;;;;;;1.83;0.93;;;22.10;95.30;;;;;;4974860;28;20066;-83
2021/08/20 10:47:03;;;;;;;3.20;1.20;;;22.10;95.30;;;;;;4975470;28;20488;-83
2021/08/20 10:49:40;;;;;;;2.72;1.10;;;22.10;95.30;;;;;;4975475;28;20651;-83
2021/08/20 10:52:06;;;;;;;2.05;0.98;;;22.10;95.20;;;;;;4976010;28;20479;-84
2021/08/20 10:54:32;;;;;;;2.03;1.00;;;22.10;95.20;;;;;;4975316;28;20078;-83
2021/08/20 10:56:58;;;;;;;2.00;1.27;;;22.10;95.20;;;;;;4975554;28;20458;-84
2021/08/20 10:59:36;;;;;;;2.70;1.33;;;22.10;95.10;;;;;;4975160;28;20395;-82
2021/08/20 11:02:20;;;;;;;1.95;1.00;;;22.20;95.00;;;;;;4975496;28;20110;-83
2021/08/20 11:05:40;;;;;;;2.38;1.20;;;22.20;94.90;;;;;;4975412;28;20023;-84
2021/08/20 11:08:27;;;;;;;2.25;1.13;;;22.20;94.80;;;;;;4900309;29;20564;-83
2021/08/20 11:10:57;;;;;;;2.40;1.05;;;22.20;94.80;;;;;;4975233;28;20030;-84
2021/08/20 11:13:23;;;;;;;2.05;1.23;;;22.30;94.80;;;;;;4974920;28;20033;-85
2021/08/20 11:15:49;;;;;;;1.38;1.00;;;22.30;94.90;;;;;;4975163;28;20101;-82
2021/08/20 11:18:15;;;;;;;2.75;1.35;;;22.40;94.50;;;;;;4974825;28;20098;-84
2021/08/20 11:20:50;;;;;;;3.05;1.23;;;22.40;94.30;;;;;;4973682;28;20022;-82
2021/08/20 11:23:17;;;;;;;2.17;1.10;;;22.50;94.20;;;;;;4974872;28;20023;-81
2021/08/20 11:25:44;;;;;;;1.42;0.77;;;22.50;94.00;;;;;;4974958;28;20270;-82
2021/08/20 11:28:27;;;;;;;2.45;1.10;;;22.50;94.00;;;;;;4973858;28;20117;-80
2021/08/20 11:31:07;;;;;;;2.90;1.20;;;22.50;93.90;;;;;;4974819;28;20027;-80
2021/08/20 11:33:37;;;;;;;2.50;1.33;;;22.50;93.90;;;;;;4974574;28;20026;-83
2021/08/20 11:36:13;;;;;;;2.35;1.10;;;22.50;93.90;;;;;;4974711;28;20034;-82
2021/08/20 11:38:42;;;;;;;3.25;1.25;;;22.50;94.00;;;;;;4975134;28;20026;-81
2021/08/20 11:41:19;;;;;;;3.88;1.25;;;22.50;94.00;;;;;;4974726;28;20027;-80
2021/08/20 11:43:46;;;;;;;2.85;1.10;;;22.50;93.90;;;;;;4974684;28;20029;-83
2021/08/20 11:46:12;;;;;;;3.22;1.20;;;22.60;93.80;;;;;;4974245;28;20024;-82
2021/08/20 11:48:57;;;;;;;4.13;1.08;;;22.70;93.70;;;;;;4974771;28;20031;-81
2021/08/20 11:51:35;;;;;;;2.10;1.00;;;22.70;93.60;;;;;;4974257;28;20019;-82
2021/08/20 11:54:06;;;;;;;2.03;1.00;;;22.70;93.60;;;;;;4974479;28;20031;-82
2021/08/20 11:56:32;;;;;;;2.38;1.00;;;22.60;93.70;;;;;;4974068;28;20101;-81
2021/08/20 11:59:10;;;;;;;2.78;1.27;;;22.60;93.70;;;;;;4974327;28;20019;-83
2021/08/20 12:01:38;;;;;;;1.98;1.17;;;22.60;94.10;;;;;;4974670;28;20482;-80
2021/08/20 12:04:05;;;;;;;6.25;1.42;;;22.60;93.80;;;;;;4974160;28;20379;-81
2021/08/20 12:06:31;;;;;;;3.08;1.27;;;22.60;93.80;;;;;;4973824;28;20035;-83
2021/08/20 12:09:11;;;;;;;1.73;0.80;;;22.70;93.70;;;;;;4974144;28;20106;-82
2021/08/20 12:11:37;;;;;;;3.50;1.25;;;22.70;93.50;;;;;;4973150;28;20030;-82
2021/08/20 12:14:03;;;;;;;2.15;1.02;;;22.80;93.40;;;;;;4974114;28;20501;-84
2021/08/20 12:16:39;;;;;;;2.92;1.10;;;22.80;93.20;;;;;;4956293;28;20551;-80
2021/08/20 12:19:15;;;;;;;;;;;22.90;93.10;;;;;;4974503;28;20542;-82
2021/08/20 12:21:44;;;;;;;4.13;1.10;;;23.00;92.90;;;;;;4972717;28;20359;-81
2021/08/20 12:24:11;;;;;;;2.70;1.20;;;23.00;92.60;;;;;;4973656;28;20446;-80
2021/08/20 12:26:37;;;;;;;2.78;1.30;;;23.10;92.60;;;;;;4974035;28;20557;-83
2021/08/20 12:29:16;;;;;;;4.03;1.40;;;23.10;92.60;;;;;;4973737;28;20027;-81
2021/08/20 12:31:57;;;;;;;3.75;1.65;;;23.10;92.50;;;;;;4973832;28;20031;-83
2021/08/20 12:34:29;;;;;;;3.08;1.02;;;23.10;92.40;;;;;;4973403;28;20086;-80
2021/08/20 12:36:56;;;;;;;1.33;0.82;;;23.10;92.50;;;;;;4972331;28;20027;-82
2021/08/20 12:39:43;;;;;;;2.58;1.10;;;23.10;92.50;;;;;;4973207;28;20019;-83
2021/08/20 12:42:25;;;;;;;3.00;1.20;;;23.10;92.50;;;;;;4973810;28;20080;-83
2021/08/20 12:45:12;;;;;;;1.60;1.05;;;23.10;92.60;;;;;;4973545;28;20038;-83
2021/08/20 12:47:38;;;;;;;3.88;1.30;;;23.10;92.50;;;;;;4973564;28;20507;-81
2021/08/20 12:50:09;;;;;;;2.75;1.00;;;23.00;92.50;;;;;;4973398;28;20051;-82